< < Back
Terminal Aerodrome Forecast


Current Version              Previous Versions:   1  2  3  4  5  6  7  8  9  

Terminal Aerodrome Forecast

337
FTUS44 KBMX 272323
TAFANB
TAF
KANB 272323Z 2800/2824 31010G18KT P6SM BKN070
     FM280300 32006KT P6SM FEW080=



Latest METAR

843
SAUS70 KWBC 290300 RRB
MTRANB
METAR KANB 290253Z AUTO 00000KT 10SM CLR 07/M08 A3029 RMK AO2 SLP264
T00721083 53021


USA.gov is the U.S. government's official web portal to all federal, state and local government web resources and services.